Time;durP1;ratioP1;P1;durP2;ratioP2;P2;SDS_P1;SDS_P2;PMS_P1;PMS_P2;Temp;Humidity;BMP_temperature;BMP_pressure;BME280_temperature;BME280_humidity;BME280_pressure;Samples;Min_cycle;Max_cycle;Signal;HPM_P1;HPM_P2
2022/11/24 00:00:13;;;;;;;;;;;;;;;;;;5067572;28;19947;-70
2022/11/24 00:02:39;;;;;;;;;;;;;;;;;;5064107;28;19913;-70
2022/11/24 00:05:04;;;;;;;;;;;;;;;;;;5059017;28;20463;-69
2022/11/24 00:07:30;;;;;;;;;;;;;;;;;;5062401;28;20354;-69
2022/11/24 00:09:56;;;;;;;;;;;;;;;;;;5055072;28;19908;-69
2022/11/24 00:12:22;;;;;;;;;;;;;;;;;;5056218;28;19936;-69
2022/11/24 00:14:48;;;;;;;;;;;;;;;;;;5060530;28;19912;-69
2022/11/24 00:17:14;;;;;;;;;;;;;;;;;;5060584;28;20374;-70
2022/11/24 00:19:40;;;;;;;;;;;;;;;;;;5070558;28;20352;-69
2022/11/24 00:22:06;;;;;;;;;;;7.90;99.90;;;;;;5070179;28;19909;-69
2022/11/24 00:24:31;;;;;;;;;;;7.90;99.90;;;;;;5060182;28;19934;-69
2022/11/24 00:26:57;;;;;;;;;;;;;;;;;;5057159;28;19940;-69
2022/11/24 00:29:23;;;;;;;;;;;;;;;;;;5059395;28;19908;-69
2022/11/24 00:31:49;;;;;;;;;;;;;;;;;;5054868;28;20323;-69
2022/11/24 00:34:15;;;;;;;;;;;;;;;;;;5058698;28;19925;-69
2022/11/24 00:36:41;;;;;;;;;;;;;;;;;;5071186;28;19969;-69
2022/11/24 00:39:07;;;;;;;;;;;;;;;;;;5069277;28;19974;-69
2022/11/24 00:41:32;;;;;;;;;;;;;;;;;;5057763;28;19915;-69
2022/11/24 00:43:58;;;;;;;;;;;;;;;;;;5063271;28;20002;-69
2022/11/24 00:46:24;;;;;;;;;;;;;;;;;;5073180;28;19918;-69
2022/11/24 00:48:50;;;;;;;;;;;8.00;99.90;;;;;;5064755;28;19909;-69
2022/11/24 00:51:16;;;;;;;;;;;;;;;;;;5065999;28;19916;-69
2022/11/24 00:53:42;;;;;;;;;;;;;;;;;;5065533;28;19920;-69
2022/11/24 00:56:08;;;;;;;;;;;;;;;;;;5073748;28;20003;-70
2022/11/24 00:58:34;;;;;;;;;;;;;;;;;;5069572;28;19936;-69
2022/11/24 01:00:59;;;;;;;;;;;;;;;;;;5065326;28;19923;-70
2022/11/24 01:03:25;;;;;;;;;;;;;;;;;;5064838;28;19908;-70
2022/11/24 01:05:51;;;;;;;;;;;;;;;;;;5059785;28;20291;-69
2022/11/24 01:08:17;;;;;;;;;;;;;;;;;;5068740;28;19912;-70
2022/11/24 01:10:43;;;;;;;;;;;;;;;;;;5070959;28;19909;-70
2022/11/24 01:13:10;;;;;;;;;;;;;;;;;;5067648;28;19917;-70
2022/11/24 01:15:36;;;;;;;;;;;7.90;99.90;;;;;;5069741;28;19936;-69
2022/11/24 01:18:02;;;;;;;;;;;;;;;;;;5069819;28;19947;-69
2022/11/24 01:20:27;;;;;;;;;;;7.80;99.90;;;;;;5069317;28;20357;-69
2022/11/24 01:22:53;;;;;;;;;;;7.80;99.90;;;;;;5070227;28;19999;-69
2022/11/24 01:25:19;;;;;;;;;;;;;;;;;;5069826;28;19936;-70
2022/11/24 01:27:44;;;;;;;;;;;;;;;;;;5069093;28;19908;-69
2022/11/24 01:30:10;;;;;;;;;;;;;;;;;;5069739;28;19929;-70
2022/11/24 01:32:36;;;;;;;;;;;;;;;;;;5084948;28;20373;-69
2022/11/24 01:35:02;;;;;;;;;;;;;;;;;;5069142;28;19921;-69
2022/11/24 01:37:28;;;;;;;;;;;7.80;99.90;;;;;;5069544;28;19986;-69
2022/11/24 01:39:54;;;;;;;;;;;;;;;;;;5079632;28;19988;-69
2022/11/24 01:42:20;;;;;;;;;;;;;;;;;;5069669;28;20327;-69
2022/11/24 01:44:45;;;;;;;;;;;;;;;;;;5069148;28;19915;-69
2022/11/24 01:47:11;;;;;;;;;;;7.80;99.90;;;;;;5069637;28;19916;-69
2022/11/24 01:49:37;;;;;;;;;;;;;;;;;;5068985;28;20016;-69
2022/11/24 01:52:08;;;;;;;;;;;8.00;99.90;;;;;;5069555;28;19908;-69
2022/11/24 01:54:34;;;;;;;;;;;;;;;;;;5056158;28;20385;-69
2022/11/24 01:57:00;;;;;;;;;;;;;;;;;;5057163;28;19958;-69
2022/11/24 01:59:26;;;;;;;;;;;;;;;;;;5072891;28;19919;-69
2022/11/24 02:01:52;;;;;;;;;;;;;;;;;;5068176;28;19908;-69
2022/11/24 02:04:18;;;;;;;;;;;;;;;;;;5068224;28;19909;-69
2022/11/24 02:06:43;;;;;;;;;;;;;;;;;;5083149;28;19964;-69
2022/11/24 02:09:09;;;;;;;;;;;;;;;;;;5068879;28;19916;-69
2022/11/24 02:11:35;;;;;;;;;;;;;;;;;;5068155;28;19919;-69
2022/11/24 02:14:01;;;;;;;;;;;;;;;;;;5068923;28;19916;-69
2022/11/24 02:16:27;;;;;;;;;;;;;;;;;;5069389;28;19909;-69
2022/11/24 02:18:53;;;;;;;;;;;;;;;;;;5079624;28;19970;-69
2022/11/24 02:21:19;;;;;;;;;;;;;;;;;;5069650;28;19912;-69
2022/11/24 02:23:45;;;;;;;;;;;;;;;;;;5068629;28;19935;-69
2022/11/24 02:26:10;;;;;;;;;;;;;;;;;;5069366;28;19909;-69
2022/11/24 02:28:36;;;;;;;;;;;;;;;;;;5068900;28;20113;-69
2022/11/24 02:31:02;;;;;;;;;;;;;;;;;;5055783;28;20354;-69
2022/11/24 02:33:28;;;;;;;;;;;;;;;;;;5069787;28;19916;-69
2022/11/24 02:35:54;;;;;;;;;;;;;;;;;;5073209;28;20327;-69
2022/11/24 02:38:20;;;;;;;;;;;;;;;;;;5072770;28;20020;-69
2022/11/24 02:40:46;;;;;;;;;;;;;;;;;;5072378;28;19961;-69
2022/11/24 02:43:12;;;;;;;;;;;;;;;;;;5072569;28;20436;-69
2022/11/24 02:45:38;;;;;;;;;;;;;;;;;;5072230;28;19940;-69
2022/11/24 02:48:04;;;;;;;;;;;;;;;;;;5072035;28;19908;-70
2022/11/24 02:50:29;;;;;;;;;;;;;;;;;;5072646;28;19909;-69
2022/11/24 02:52:55;;;;;;;;;;;;;;;;;;5071862;28;20372;-70
2022/11/24 02:55:22;;;;;;;;;;;;;;;;;;5072453;28;19954;-69
2022/11/24 02:57:48;;;;;;;;;;;;;;;;;;5075302;28;19912;-69
2022/11/24 03:00:14;;;;;;;;;;;;;;;;;;5072523;28;19916;-69
2022/11/24 03:02:40;;;;;;;;;;;;;;;;;;5071440;28;20257;-69
2022/11/24 03:05:05;;;;;;;;;;;7.60;99.90;;;;;;5072224;28;20011;-69
2022/11/24 03:07:31;;;;;;;;;;;;;;;;;;5072478;28;19909;-69
2022/11/24 03:09:57;;;;;;;;;;;;;;;;;;5071384;28;20502;-70
2022/11/24 03:12:23;;;;;;;;;;;;;;;;;;5072254;28;19915;-69
2022/11/24 03:14:49;;;;;;;;;;;;;;;;;;5071297;28;20379;-69
2022/11/24 03:17:15;;;;;;;;;;;;;;;;;;5071603;28;19947;-69
2022/11/24 03:19:41;;;;;;;;;;;;;;;;;;5077261;28;20383;-69
2022/11/24 03:22:07;;;;;;;;;;;;;;;;;;5071602;28;19916;-69
2022/11/24 03:24:32;;;;;;;;;;;;;;;;;;5071523;28;19960;-69
2022/11/24 03:26:58;;;;;;;;;;;;;;;;;;5071366;28;19923;-70
2022/11/24 03:29:24;;;;;;;;;;;;;;;;;;5071582;28;20350;-69
2022/11/24 03:31:50;;;;;;;;;;;7.60;99.90;;;;;;5070608;28;19909;-70
2022/11/24 03:34:15;;;;;;;;;;;;;;;;;;5071812;28;20281;-70
2022/11/24 03:36:41;;;;;;;;;;;;;;;;;;5070978;28;20013;-69
2022/11/24 03:39:09;;;;;;;;;;;;;;;;;;5058144;28;21410;-69
2022/11/24 03:41:35;;;;;;;;;;;;;;;;;;5071276;28;19961;-69
2022/11/24 03:44:01;;;;;;;;;;;;;;;;;;5075209;28;19919;-70
2022/11/24 03:46:27;;;;;;;;;;;;;;;;;;5071325;28;19932;-69
2022/11/24 03:48:52;;;;;;;;;;;8.10;99.90;;;;;;5070982;28;20357;-69
2022/11/24 03:51:18;;;;;;;;;;;8.10;99.90;;;;;;5071256;28;19951;-69
2022/11/24 03:53:43;;;;;;;;;;;8.00;99.90;;;;;;5071792;28;20609;-69
2022/11/24 03:56:09;;;;;;;;;;;;;;;;;;5075830;28;19916;-69
2022/11/24 03:58:35;;;;;;;;;;;7.90;99.90;;;;;;5070486;28;19909;-69
2022/11/24 04:01:01;;;;;;;;;;;;;;;;;;5070846;28;19938;-69
2022/11/24 04:03:27;;;;;;;;;;;;;;;;;;5071287;28;19916;-70
2022/11/24 04:05:53;;;;;;;;;;;;;;;;;;5071831;28;20313;-69
2022/11/24 04:08:19;;;;;;;;;;;;;;;;;;5058098;28;19912;-69
2022/11/24 04:10:47;;;;;;;;;;;7.70;99.90;;;;;;5070408;28;19915;-69
2022/11/24 04:13:15;;;;;;;;;;;7.70;99.90;;;;;;5070499;28;20285;-69
2022/11/24 04:15:40;;;;;;;;;;;;;;;;;;5070228;28;19916;-69
2022/11/24 04:18:06;;;;;;;;;;;;;;;;;;5070999;28;20053;-69
2022/11/24 04:20:32;;;;;;;;;;;;;;;;;;5070547;28;19915;-69
2022/11/24 04:22:58;;;;;;;;;;;;;;;;;;5070481;28;19913;-69
2022/11/24 04:25:24;;;;;;;;;;;;;;;;;;5070524;28;20409;-69
2022/11/24 04:27:50;;;;;;;;;;;;;;;;;;5069574;28;19958;-70
2022/11/24 04:30:16;;;;;;;;;;;7.70;99.90;;;;;;5071736;28;20019;-69
2022/11/24 04:32:42;;;;;;;;;;;;;;;;;;5070190;28;19931;-69
2022/11/24 04:35:08;;;;;;;;;;;;;;;;;;5070331;28;19916;-69
2022/11/24 04:37:33;;;;;;;;;;;;;;;;;;5070052;28;19916;-69
2022/11/24 04:39:59;;;;;;;;;;;;;;;;;;5069923;28;19916;-69
2022/11/24 04:42:25;;;;;;;;;;;;;;;;;;5070026;28;19909;-69
2022/11/24 04:44:51;;;;;;;;;;;;;;;;;;5069438;28;19912;-69
2022/11/24 04:47:17;;;;;;;;;;;;;;;;;;5070151;28;19915;-70
2022/11/24 04:49:43;;;;;;;;;;;;;;;;;;5069778;28;19909;-70
2022/11/24 04:52:09;;;;;;;;;;;;;;;;;;5070295;28;20011;-70
2022/11/24 04:54:34;;;;;;;;;;;;;;;;;;5069629;28;19958;-69
2022/11/24 04:57:00;;;;;;;;;;;;;;;;;;5069248;28;19915;-69
2022/11/24 04:59:26;;;;;;;;;;;;;;;;;;5069966;28;20376;-69
2022/11/24 05:01:52;;;;;;;;;;;;;;;;;;5069473;28;19912;-69
2022/11/24 05:04:20;;;;;;;;;;;;;;;;;;5070188;28;19909;-69
2022/11/24 05:06:45;;;;;;;;;;;;;;;;;;5056304;28;20377;-69
2022/11/24 05:09:11;;;;;;;;;;;;;;;;;;5068445;28;19954;-69
2022/11/24 05:11:37;;;;;;;;;;;;;;;;;;5068950;28;20388;-69
2022/11/24 05:14:03;;;;;;;;;;;;;;;;;;5069444;28;19965;-70
2022/11/24 05:16:29;;;;;;;;;;;;;;;;;;5069813;28;19916;-69
2022/11/24 05:18:55;;;;;;;;;;;;;;;;;;5069171;28;20268;-69
2022/11/24 05:21:21;;;;;;;;;;;;;;;;;;5069792;28;19909;-69
2022/11/24 05:23:46;;;;;;;;;;;;;;;;;;5068909;28;19913;-69
2022/11/24 05:26:12;;;;;;;;;;;;;;;;;;5077047;28;19909;-69
2022/11/24 05:28:38;;;;;;;;;;;;;;;;;;5069038;28;20357;-69
2022/11/24 05:31:04;;;;;;;;;;;;;;;;;;5069853;28;19922;-69
2022/11/24 05:33:32;;;;;;;;;;;;;;;;;;5068432;28;19917;-69
2022/11/24 05:36:01;;;;;;;;;;;8.50;99.90;;;;;;5069151;28;20627;-69
2022/11/24 05:38:28;;;;;;;;;;;;;;;;;;5069543;28;19959;-70
2022/11/24 05:40:58;;;;;;;;;;;8.40;99.90;;;;;;5068742;28;19913;-69
2022/11/24 05:43:24;;;;;;;;;;;;;;;;;;5067855;28;20346;-69
2022/11/24 05:45:50;;;;;;;;;;;;;;;;;;5059106;28;19955;-69
2022/11/24 05:48:16;;;;;;;;;;;;;;;;;;5069478;28;20288;-69
2022/11/24 05:50:42;;;;;;;;;;;;;;;;;;5069011;28;20000;-69
2022/11/24 05:53:07;;;;;;;;;;;;;;;;;;5068989;28;20471;-69
2022/11/24 05:55:33;;;;;;;;;;;;;;;;;;5070965;28;19912;-69
2022/11/24 05:57:59;;;;;;;;;;;;;;;;;;5068877;28;19912;-69
2022/11/24 06:00:26;;;;;;;;;;;;;;;;;;5058177;28;19909;-69
2022/11/24 06:02:51;;;;;;;;;;;;;;;;;;5066773;28;20416;-70
2022/11/24 06:05:17;;;;;;;;;;;8.30;99.90;;;;;;5069342;28;19909;-69
2022/11/24 06:07:43;;;;;;;;;;;;;;;;;;5068770;28;20221;-69
2022/11/24 06:10:09;;;;;;;;;;;;;;;;;;5072830;28;20242;-69
2022/11/24 06:12:34;;;;;;;;;;;;;;;;;;5072708;28;20304;-69
2022/11/24 06:15:00;;;;;;;;;;;;;;;;;;5072879;28;19920;-69
2022/11/24 06:17:26;;;;;;;;;;;;;;;;;;5072968;28;19969;-69
2022/11/24 06:19:52;;;;;;;;;;;8.30;99.90;;;;;;5072540;28;19909;-69
2022/11/24 06:22:18;;;;;;;;;;;8.30;99.90;;;;;;5068669;28;19912;-69
2022/11/24 06:24:45;;;;;;;;;;;;;;;;;;5058956;28;19981;-69
2022/11/24 06:27:11;;;;;;;;;;;;;;;;;;5058746;28;20023;-69
2022/11/24 06:29:37;;;;;;;;;;;;;;;;;;5055617;28;19924;-69
2022/11/24 06:32:03;;;;;;;;;;;;;;;;;;5067608;28;19913;-69
2022/11/24 06:34:28;;;;;;;;;;;;;;;;;;5055901;28;20007;-69
2022/11/24 06:36:54;;;;;;;;;;;8.30;99.90;;;;;;5055584;28;19921;-70
2022/11/24 06:39:20;;;;;;;;;;;;;;;;;;5055265;28;19909;-70
2022/11/24 06:41:46;;;;;;;;;;;;;;;;;;5055062;28;19970;-69
2022/11/24 06:44:11;;;;;;;;;;;8.20;99.90;;;;;;5055670;28;19915;-69
2022/11/24 06:46:37;;;;;;;;;;;;;;;;;;5055102;28;19920;-69
2022/11/24 06:49:02;;;;;;;;;;;8.20;99.90;;;;;;5067101;28;19908;-69
2022/11/24 06:51:28;;;;;;;;;;;;;;;;;;5055012;28;19956;-70
2022/11/24 06:53:54;;;;;;;;;;;8.00;99.90;;;;;;5064716;28;20357;-69
2022/11/24 06:56:20;;;;;;;;;;;;;;;;;;5067167;28;19912;-69
2022/11/24 06:58:46;;;;;;;;;;;;;;;;;;5065915;28;19909;-69
2022/11/24 07:01:12;;;;;;;;;;;;;;;;;;5063010;28;20027;-70
2022/11/24 07:03:37;;;;;;;;;;;;;;;;;;5065900;28;19991;-70
2022/11/24 07:06:03;;;;;;;;;;;;;;;;;;5064044;28;19932;-67
2022/11/24 07:08:29;;;;;;;;;;;;;;;;;;5056186;28;19979;-67
2022/11/24 07:10:55;;;;;;;;;;;;;;;;;;5056597;28;19913;-67
2022/11/24 07:13:21;;;;;;;;;;;;;;;;;;5069056;28;19916;-67
2022/11/24 07:15:47;;;;;;;;;;;;;;;;;;5063434;28;19913;-67
2022/11/24 07:18:13;;;;;;;;;;;;;;;;;;5068959;28;19912;-67
2022/11/24 07:20:39;;;;;;;;;;;;;;;;;;5058169;28;19908;-67
2022/11/24 07:23:05;;;;;;;;;;;;;;;;;;5060273;28;20141;-67
2022/11/24 07:25:31;;;;;;;;;;;;;;;;;;5063098;28;19909;-67
2022/11/24 07:27:57;;;;;;;;;;;;;;;;;;5067232;28;20548;-67
2022/11/24 07:30:23;;;;;;;;;;;;;;;;;;5063759;28;19909;-67
2022/11/24 07:32:49;;;;;;;;;;;;;;;;;;5067070;28;19954;-67
2022/11/24 07:35:15;;;;;;;;;;;;;;;;;;5062959;28;19917;-67
2022/11/24 07:37:40;;;;;;;;;;;;;;;;;;5069781;28;19999;-67
2022/11/24 07:40:07;;;;;;;;;;;;;;;;;;5069207;28;19909;-67
2022/11/24 07:42:32;;;;;;;;;;;;;;;;;;5057963;28;19927;-67
2022/11/24 07:44:58;;;;;;;;;;;;;;;;;;5057090;28;20259;-67
2022/11/24 07:47:24;;;;;;;;;;;;;;;;;;5055745;28;20355;-67
2022/11/24 07:49:50;;;;;;;;;;;;;;;;;;5056938;28;19924;-67
2022/11/24 07:52:16;;;;;;;;;;;;;;;;;;5054475;28;19923;-67
2022/11/24 07:54:42;;;;;;;;;;;;;;;;;;5066145;28;19916;-67
2022/11/24 07:57:08;;;;;;;;;;;;;;;;;;5070746;28;19962;-67
2022/11/24 07:59:33;;;;;;;;;;;;;;;;;;5068204;28;19918;-67
2022/11/24 08:01:59;;;;;;;;;;;;;;;;;;5079471;28;20369;-67
2022/11/24 08:04:25;;;;;;;;;;;;;;;;;;5068634;28;20303;-67
2022/11/24 08:06:51;;;;;;;;;;;;;;;;;;5085183;28;19958;-67
2022/11/24 08:09:17;;;;;;;;;;;;;;;;;;5072993;28;19966;-67
2022/11/24 08:11:43;;;;;;;;;;;;;;;;;;5070083;28;19920;-67
2022/11/24 08:14:09;;;;;;;;;;;;;;;;;;5068544;28;19923;-67
2022/11/24 08:16:34;;;;;;;;;;;;;;;;;;5059752;28;19912;-67
2022/11/24 08:19:00;;;;;;;;;;;;;;;;;;5063797;28;20322;-67
2022/11/24 08:21:26;;;;;;;;;;;;;;;;;;5052583;28;19963;-67
2022/11/24 08:23:52;;;;;;;;;;;;;;;;;;5053739;28;19909;-67
2022/11/24 08:26:18;;;;;;;;;;;;;;;;;;5085516;28;19912;-67
2022/11/24 08:28:44;;;;;;;;;;;;;;;;;;5058796;28;19909;-67
2022/11/24 08:31:10;;;;;;;;;;;;;;;;;;5051877;28;20387;-67
2022/11/24 08:33:36;;;;;;;;;;;;;;;;;;5051870;28;19917;-68
2022/11/24 08:36:01;;;;;;;;;;;;;;;;;;5051745;28;19916;-67
2022/11/24 08:38:27;;;;;;;;;;;;;;;;;;5055262;28;19992;-67
2022/11/24 08:40:53;;;;;;;;;;;8.80;99.90;;;;;;5052784;28;19924;-67
2022/11/24 08:43:19;;;;;;;;;;;;;;;;;;5052482;28;19951;-67
2022/11/24 08:45:44;;;;;;;;;;;;;;;;;;5053457;28;19963;-67
2022/11/24 08:48:10;;;;;;;;;;;;;;;;;;5053134;28;19908;-67
2022/11/24 08:50:36;;;;;;;;;;;;;;;;;;5051964;28;19908;-67
2022/11/24 08:53:02;;;;;;;;;;;;;;;;;;5052023;28;19939;-67
2022/11/24 08:55:28;;;;;;;;;;;;;;;;;;5068278;28;20002;-67
2022/11/24 08:57:54;;;;;;;;;;;;;;;;;;5083963;28;20265;-67
2022/11/24 09:00:22;;;;;;;;;;;;;;;;;;5069130;28;19912;-67
2022/11/24 09:02:48;;;;;;;;;;;;;;;;;;5066712;28;19908;-67
2022/11/24 09:05:13;;;;;;;;;;;;;;;;;;5066830;28;20350;-67
2022/11/24 09:07:39;;;;;;;;;;;;;;;;;;5065966;28;19928;-67
2022/11/24 09:10:05;;;;;;;;;;;;;;;;;;5059888;28;19918;-67
2022/11/24 09:12:31;;;;;;;;;;;;;;;;;;5054530;28;19924;-67
2022/11/24 09:14:57;;;;;;;;;;;;;;;;;;5054831;28;20395;-67
2022/11/24 09:17:23;;;;;;;;;;;;;;;;;;5049480;28;19915;-67
2022/11/24 09:19:48;;;;;;;;;;;9.00;99.90;;;;;;5052561;28;19978;-67
2022/11/24 09:22:14;;;;;;;;;;;;;;;;;;5051258;28;19916;-67
2022/11/24 09:24:40;;;;;;;;;;;;;;;;;;5052666;28;19978;-67
2022/11/24 09:27:06;;;;;;;;;;;;;;;;;;5050387;28;19925;-67
2022/11/24 09:29:31;;;;;;;;;;;9.20;99.90;;;;;;5052850;28;19931;-67
2022/11/24 09:31:57;;;;;;;;;;;;;;;;;;5049368;28;19989;-66
2022/11/24 09:34:23;;;;;;;;;;;;;;;;;;5052449;28;19928;-67
2022/11/24 09:36:50;;;;;;;;;;;;;;;;;;5049344;28;20011;-65
2022/11/24 09:39:16;;;;;;;;;;;;;;;;;;5051061;28;19982;-65
2022/11/24 09:41:42;;;;;;;;;;;;;;;;;;5056860;28;19948;-65
2022/11/24 09:44:07;;;;;;;;;;;;;;;;;;5054455;28;19908;-65
2022/11/24 09:46:33;;;;;;;;;;;;;;;;;;5053575;28;19999;-68
2022/11/24 09:48:59;;;;;;;;;;;;;;;;;;5052348;28;20170;-68
2022/11/24 09:51:25;;;;;;;;;;;;;;;;;;5052997;28;20395;-68
2022/11/24 09:53:51;;;;;;;;;;;;;;;;;;5055276;28;19936;-68
2022/11/24 09:56:17;;;;;;;;;;;;;;;;;;5066632;28;19920;-68
2022/11/24 09:58:43;;;;;;;;;;;;;;;;;;5071126;28;19992;-68
2022/11/24 10:01:09;;;;;;;;;;;;;;;;;;5069651;28;19909;-68
2022/11/24 10:03:34;;;;;;;;;;;;;;;;;;5071743;28;19962;-68
2022/11/24 10:06:00;;;;;;;;;;;;;;;;;;5070327;28;19915;-68
2022/11/24 10:08:26;;;;;;;;;;;;;;;;;;5071174;28;20003;-68
2022/11/24 10:10:52;;;;;;;;;;;;;;;;;;5078707;28;19928;-68
2022/11/24 10:13:18;;;;;;;;;;;;;;;;;;5070806;28;19909;-68
2022/11/24 10:15:44;;;;;;;;;;;;;;;;;;5060254;28;20369;-68
2022/11/24 10:18:10;;;;;;;;;;;;;;;;;;5067562;28;19913;-68
2022/11/24 10:20:35;;;;;;;;;;;;;;;;;;5053600;28;19950;-68
2022/11/24 10:23:01;;;;;;;;;;;;;;;;;;5071700;28;19920;-68
2022/11/24 10:25:27;;;;;;;;;;;;;;;;;;5055446;28;20356;-68
2022/11/24 10:27:53;;;;;;;;;;;;;;;;;;5055134;28;19913;-68
2022/11/24 10:30:19;;;;;;;;;;;;;;;;;;5058594;28;19919;-68
2022/11/24 10:32:45;;;;;;;;;;;;;;;;;;5052187;28;19995;-68
2022/11/24 10:35:11;;;;;;;;;;;;;;;;;;5053888;28;19912;-68
2022/11/24 10:37:36;;;;;;;;;;;;;;;;;;5054164;28;19999;-68
2022/11/24 10:40:02;;;;;;;;;;;;;;;;;;5065447;28;19975;-68
2022/11/24 10:42:28;;;;;;;;;;;;;;;;;;5069818;28;19916;-68
2022/11/24 10:44:54;;;;;;;;;;;;;;;;;;5066288;28;19912;-66
2022/11/24 10:47:21;;;;;;;;;;;;;;;;;;5070582;28;20271;-66
2022/11/24 10:49:47;;;;;;;;;;;;;;;;;;5054361;28;19908;-67
2022/11/24 10:52:13;;;;;;;;;;;;;;;;;;5059847;28;19908;-66
2022/11/24 10:54:39;;;;;;;;;;;;;;;;;;5068715;28;20365;-66
2022/11/24 10:57:05;;;;;;;;;;;;;;;;;;5071658;28;19913;-66
2022/11/24 10:59:30;;;;;;;;;;;;;;;;;;5071761;28;19970;-66
2022/11/24 11:01:56;;;;;;;;;;;;;;;;;;5069660;28;19916;-66
2022/11/24 11:04:22;;;;;;;;;;;;;;;;;;5069339;28;19991;-66
2022/11/24 11:06:48;;;;;;;;;;;;;;;;;;5063151;28;19917;-66
2022/11/24 11:09:16;;;;;;;;;;;;;;;;;;5064243;28;20016;-66
2022/11/24 11:11:43;;;;;;;;;;;;;;;;;;5056084;28;20004;-67
2022/11/24 11:14:09;;;;;;;;;;;;;;;;;;5053931;28;20008;-67
2022/11/24 11:16:35;;;;;;;;;;;;;;;;;;5054020;28;20410;-67
2022/11/24 11:19:02;;;;;;;;;;;;;;;;;;5062284;28;19927;-67
2022/11/24 11:21:28;;;;;;;;;;;;;;;;;;5069302;28;20007;-67
2022/11/24 11:23:53;;;;;;;;;;;;;;;;;;5066278;28;20410;-67
2022/11/24 11:26:20;;;;;;;;;;;;;;;;;;5056721;28;20374;-66
2022/11/24 11:28:45;;;;;;;;;;;;;;;;;;5053161;28;19920;-67
2022/11/24 11:31:11;;;;;;;;;;;;;;;;;;5051366;28;20380;-67
2022/11/24 11:33:37;;;;;;;;;;;;;;;;;;5054431;28;19921;-67
2022/11/24 11:36:07;;;;;;;;;;;9.80;99.90;;;;;;5053572;28;19913;-67
2022/11/24 11:38:33;;;;;;;;;;;;;;;;;;5055966;28;19913;-66
2022/11/24 11:40:59;;;;;;;;;;;;;;;;;;5055952;28;20331;-67
2022/11/24 11:43:25;;;;;;;;;;;;;;;;;;5055707;28;19923;-67
2022/11/24 11:45:51;;;;;;;;;;;;;;;;;;5059926;28;20333;-66
2022/11/24 11:48:17;;;;;;;;;;;;;;;;;;5060117;28;19913;-67
2022/11/24 11:50:43;;;;;;;;;;;;;;;;;;5053955;28;20059;-67
2022/11/24 11:53:09;;;;;;;;;;;;;;;;;;5064228;28;19909;-67
2022/11/24 11:55:35;;;;;;;;;;;;;;;;;;5070405;28;19948;-67
2022/11/24 11:58:01;;;;;;;;;;;;;;;;;;5067188;28;19919;-67
2022/11/24 12:00:27;;;;;;;;;;;;;;;;;;5066110;28;20423;-67
2022/11/24 12:02:52;;;;;;;;;;;;;;;;;;5069226;28;19996;-66
2022/11/24 12:05:19;;;;;;;;;;;;;;;;;;5065394;28;20002;-67
2022/11/24 12:07:45;;;;;;;;;;;;;;;;;;5065672;28;20076;-66
2022/11/24 12:10:11;;;;;;;;;;;;;;;;;;5054464;28;20321;-67
2022/11/24 12:12:36;;;;;;;;;;;;;;;;;;5054423;28;19908;-67
2022/11/24 12:15:02;;;;;;;;;;;;;;;;;;5054619;28;20610;-67
2022/11/24 12:17:28;;;;;;;;;;;;;;;;;;5057060;28;19913;-66
2022/11/24 12:19:54;;;;;;;;;;;;;;;;;;5051167;28;19935;-67
2022/11/24 12:22:20;;;;;;;;;;;;;;;;;;5050672;28;19991;-68
2022/11/24 12:24:46;;;;;;;;;;;;;;;;;;5050710;28;20233;-67
2022/11/24 12:27:12;;;;;;;;;;;;;;;;;;5060952;28;19920;-67
2022/11/24 12:29:38;;;;;;;;;;;;;;;;;;5051585;28;19923;-67
2022/11/24 12:32:06;;;;;;;;;;;10.20;99.90;;;;;;5051299;28;19916;-66
2022/11/24 12:34:32;;;;;;;;;;;;;;;;;;5060067;28;19961;-67
2022/11/24 12:36:58;;;;;;;;;;;;;;;;;;5055946;28;19956;-67
2022/11/24 12:39:24;;;;;;;;;;;;;;;;;;5050134;28;19909;-67
2022/11/24 12:41:49;;;;;;;;;;;;;;;;;;5049470;28;20343;-67
2022/11/24 12:44:15;;;;;;;;;;;;;;;;;;5050129;28;19909;-67
2022/11/24 12:46:41;;;;;;;;;;;;;;;;;;5058336;28;20384;-67
2022/11/24 12:49:07;;;;;;;;;;;;;;;;;;5053315;28;19913;-67
2022/11/24 12:51:33;;;;;;;;;;;;;;;;;;5058680;28;19967;-67
2022/11/24 12:53:59;;;;;;;;;;;;;;;;;;5057538;28;20014;-67
2022/11/24 12:56:25;;;;;;;;;;;;;;;;;;5068410;28;19908;-67
2022/11/24 12:58:51;;;;;;;;;;;;;;;;;;5068867;28;20008;-67
2022/11/24 13:01:17;;;;;;;;;;;10.30;99.90;;;;;;5067669;28;19909;-67
2022/11/24 13:03:43;;;;;;;;;;;;;;;;;;5074166;28;19919;-67
2022/11/24 13:06:09;;;;;;;;;;;;;;;;;;5071237;28;19909;-67
2022/11/24 13:08:35;;;;;;;;;;;;;;;;;;5068016;28;19991;-67
2022/11/24 13:11:01;;;;;;;;;;;;;;;;;;5061600;28;20374;-67
2022/11/24 13:13:27;;;;;;;;;;;;;;;;;;5067894;28;19969;-67
2022/11/24 13:15:53;;;;;;;;;;;;;;;;;;5051527;28;19921;-67
2022/11/24 13:18:19;;;;;;;;;;;;;;;;;;5059118;28;19908;-67
2022/11/24 13:20:45;;;;;;;;;;;;;;;;;;5056991;28;19909;-67
2022/11/24 13:23:10;;;;;;;;;;;;;;;;;;5064550;28;20042;-67
2022/11/24 13:25:36;;;;;;;;;;;;;;;;;;5050863;28;19909;-67
2022/11/24 13:28:02;;;;;;;;;;;;;;;;;;5053514;28;19952;-67
2022/11/24 13:30:28;;;;;;;;;;;;;;;;;;5051107;28;20040;-67
2022/11/24 13:32:54;;;;;;;;;;;;;;;;;;5050096;28;19909;-66
2022/11/24 13:35:20;;;;;;;;;;;;;;;;;;5051730;28;20304;-67
2022/11/24 13:37:47;;;;;;;;;;;;;;;;;;5052269;28;19921;-67
2022/11/24 13:40:13;;;;;;;;;;;;;;;;;;5062163;28;20336;-67
2022/11/24 13:42:39;;;;;;;;;;;;;;;;;;5062016;28;19909;-66
2022/11/24 13:45:06;;;;;;;;;;;;;;;;;;5051513;28;20259;-66
2022/11/24 13:47:32;;;;;;;;;;;;;;;;;;5050974;28;19916;-66
2022/11/24 13:49:57;;;;;;;;;;;;;;;;;;5053055;28;20309;-66
2022/11/24 13:52:23;;;;;;;;;;;;;;;;;;5064757;28;19948;-67
2022/11/24 13:54:49;;;;;;;;;;;;;;;;;;5061525;28;19920;-66
2022/11/24 13:57:15;;;;;;;;;;;;;;;;;;5049103;28;20292;-66
2022/11/24 13:59:41;;;;;;;;;;;;;;;;;;5047363;28;19913;-67
2022/11/24 14:02:07;;;;;;;;;;;;;;;;;;5048904;28;20012;-66
2022/11/24 14:04:38;;;;;;;;;;;;;;;;;;5056232;28;19912;-66
2022/11/24 14:07:04;;;;;;;;;;;;;;;;;;5057288;28;20349;-67
2022/11/24 14:09:29;;;;;;;;;;;;;;;;;;5053328;28;19917;-67
2022/11/24 14:11:55;;;;;;;;;;;;;;;;;;5057141;28;20641;-67
2022/11/24 14:14:21;;;;;;;;;;;;;;;;;;5056362;28;20016;-67
2022/11/24 14:16:47;;;;;;;;;;;;;;;;;;5054263;28;19952;-66
2022/11/24 14:19:13;;;;;;;;;;;;;;;;;;5059413;28;19915;-67
2022/11/24 14:21:43;;;;;;;;;;;10.20;99.90;;;;;;5056689;28;19987;-66
2022/11/24 14:24:08;;;;;;;;;;;;;;;;;;5060265;28;19942;-67
2022/11/24 14:26:34;;;;;;;;;;;;;;;;;;5056669;28;19912;-66
2022/11/24 14:29:00;;;;;;;;;;;;;;;;;;5057865;28;20020;-67
2022/11/24 14:31:26;;;;;;;;;;;;;;;;;;5068550;28;19912;-66
2022/11/24 14:33:52;;;;;;;;;;;;;;;;;;5067506;28;20383;-67
2022/11/24 14:36:18;;;;;;;;;;;;;;;;;;5063066;28;19967;-66
2022/11/24 14:38:44;;;;;;;;;;;;;;;;;;5053201;28;19996;-66
2022/11/24 14:41:10;;;;;;;;;;;;;;;;;;5051463;28;20012;-67
2022/11/24 14:43:35;;;;;;;;;;;;;;;;;;5056216;28;19908;-66
2022/11/24 14:46:01;;;;;;;;;;;;;;;;;;5052965;28;19923;-66
2022/11/24 14:48:27;;;;;;;;;;;;;;;;;;5054553;28;19916;-66
2022/11/24 14:50:53;;;;;;;;;;;;;;;;;;5055780;28;19916;-68
2022/11/24 14:53:19;;;;;;;;;;;;;;;;;;5061442;28;19960;-66
2022/11/24 14:55:47;;;;;;;;;;;;;;;;;;5061125;28;19954;-68
2022/11/24 14:58:13;;;;;;;;;;;;;;;;;;5067839;28;19912;-67
2022/11/24 15:00:39;;;;;;;;;;;9.40;99.90;;;;;;5050469;28;20354;-66
2022/11/24 15:03:04;;;;;;;;;;;;;;;;;;5057754;28;19947;-66
2022/11/24 15:05:30;;;;;;;;;;;;;;;;;;5086162;28;19916;-66
2022/11/24 15:07:56;;;;;;;;;;;;;;;;;;5070840;28;19916;-68
2022/11/24 15:10:22;;;;;;;;;;;;;;;;;;5063204;28;19912;-67
2022/11/24 15:12:48;;;;;;;;;;;;;;;;;;5055139;28;20234;-67
2022/11/24 15:15:14;;;;;;;;;;;;;;;;;;5061797;28;19960;-66
2022/11/24 15:17:39;;;;;;;;;;;;;;;;;;5053608;28;20401;-67
2022/11/24 15:20:05;;;;;;;;;;;;;;;;;;5050892;28;20011;-66
2022/11/24 15:22:31;;;;;;;;;;;;;;;;;;5054030;28;19915;-67
2022/11/24 15:24:57;;;;;;;;;;;;;;;;;;5055824;28;20116;-66
2022/11/24 15:27:23;;;;;;;;;;;;;;;;;;5068339;28;20323;-66
2022/11/24 15:29:49;;;;;;;;;;;;;;;;;;5065531;28;20019;-67
2022/11/24 15:32:15;;;;;;;;;;;;;;;;;;5054687;28;19920;-67
2022/11/24 15:34:40;;;;;;;;;;;;;;;;;;5053561;28;20270;-67
2022/11/24 15:37:06;;;;;;;;;;;;;;;;;;5054732;28;19987;-67
2022/11/24 15:39:32;;;;;;;;;;;;;;;;;;5066749;28;19974;-66
2022/11/24 15:41:58;;;;;;;;;;;;;;;;;;5060162;28;19928;-66
2022/11/24 15:44:24;;;;;;;;;;;;;;;;;;5059678;28;19909;-67
2022/11/24 15:46:50;;;;;;;;;;;;;;;;;;5068977;28;19920;-67
2022/11/24 15:49:16;;;;;;;;;;;;;;;;;;5063639;28;19920;-66
2022/11/24 15:51:41;;;;;;;;;;;;;;;;;;5063278;28;19909;-66
2022/11/24 15:54:07;;;;;;;;;;;;;;;;;;5061786;28;19942;-66
2022/11/24 15:56:33;;;;;;;;;;;;;;;;;;5063265;28;19974;-66
2022/11/24 15:58:59;;;;;;;;;;;;;;;;;;5067610;28;19908;-66
2022/11/24 16:01:25;;;;;;;;;;;;;;;;;;5064148;28;20055;-66
2022/11/24 16:03:51;;;;;;;;;;;;;;;;;;5084293;28;19915;-66
2022/11/24 16:06:17;;;;;;;;;;;;;;;;;;5057353;28;19946;-66
2022/11/24 16:08:43;;;;;;;;;;;;;;;;;;5059820;28;19908;-66
2022/11/24 16:11:08;;;;;;;;;;;;;;;;;;5060475;28;19939;-66
2022/11/24 16:13:34;;;;;;;;;;;;;;;;;;5056499;28;20004;-66
2022/11/24 16:16:00;;;;;;;;;;;;;;;;;;5037822;28;19924;-66
2022/11/24 16:18:26;;;;;;;;;;;;;;;;;;5067489;28;19916;-66
2022/11/24 16:20:52;;;;;;;;;;;;;;;;;;5058765;28;19920;-66